Time;durP1;ratioP1;P1;durP2;ratioP2;P2;SDS_P1;SDS_P2;PMS_P1;PMS_P2;Temp;Humidity;BMP_temperature;BMP_pressure;BME280_temperature;BME280_humidity;BME280_pressure;Samples;Min_cycle;Max_cycle;Signal;HPM_P1;HPM_P2
2020/12/25 00:00:09;;;;;;;0.90;0.90;;;20.60;51.80;;;;;;5061422;28;20480;-67
2020/12/25 00:02:36;;;;;;;0.70;0.70;;;20.60;51.90;;;;;;5043784;28;20863;-66
2020/12/25 00:05:02;;;;;;;0.87;0.87;;;20.60;52.00;;;;;;5052662;28;20501;-68
2020/12/25 00:07:28;;;;;;;0.70;0.70;;;20.60;52.10;;;;;;5057548;28;20472;-67
2020/12/25 00:09:55;;;;;;;0.93;0.93;;;20.60;51.90;;;;;;5067714;28;20488;-67
2020/12/25 00:12:21;;;;;;;0.70;0.70;;;20.60;51.90;;;;;;5067867;28;20473;-66
2020/12/25 00:14:47;;;;;;;1.07;0.80;;;20.60;51.80;;;;;;5055232;28;20483;-67
2020/12/25 00:17:14;;;;;;;0.60;0.60;;;20.60;51.90;;;;;;5071781;28;20481;-68
2020/12/25 00:19:40;;;;;;;1.10;1.00;;;20.60;51.80;;;;;;5068698;28;20468;-66
2020/12/25 00:22:06;;;;;;;1.13;1.07;;;20.60;51.70;;;;;;5069177;28;20477;-67
2020/12/25 00:24:32;;;;;;;1.00;0.83;;;20.60;51.80;;;;;;5064708;28;20481;-67
2020/12/25 00:26:59;;;;;;;0.67;0.50;;;20.60;51.90;;;;;;5067182;28;20526;-67
2020/12/25 00:29:25;;;;;;;0.90;0.77;;;20.60;51.90;;;;;;5056885;28;20990;-66
2020/12/25 00:32:01;;;;;;;;;;;;;;;;;;;;;
2020/12/25 00:34:31;;;;;;;0.60;0.60;;;20.60;51.90;;;;;;5052646;28;20827;-67
2020/12/25 00:36:58;;;;;;;0.63;0.63;;;20.60;51.90;;;;;;5066784;28;20500;-67
2020/12/25 00:39:24;;;;;;;1.20;1.10;;;20.60;51.90;;;;;;5052966;28;20485;-67
2020/12/25 00:41:51;;;;;;;1.43;0.60;;;20.60;51.80;;;;;;5073548;28;20481;-67
2020/12/25 00:44:18;;;;;;;0.80;0.80;;;20.60;51.90;;;;;;5062932;28;20542;-67
2020/12/25 00:46:44;;;;;;;0.60;0.60;;;20.60;51.80;;;;;;5086116;28;20479;-67
2020/12/25 00:49:11;;;;;;;1.90;0.77;;;20.60;51.90;;;;;;5061328;28;20477;-67
2020/12/25 00:51:37;;;;;;;0.60;0.60;;;20.50;51.70;;;;;;5072379;28;20632;-66
2020/12/25 00:54:03;;;;;;;0.77;0.73;;;20.50;51.70;;;;;;5060181;28;20562;-67
2020/12/25 00:56:29;;;;;;;0.60;0.60;;;20.50;51.60;;;;;;5058721;28;20496;-67
2020/12/25 00:58:55;;;;;;;0.70;0.70;;;20.50;51.70;;;;;;5046037;28;20485;-67
2020/12/25 01:01:22;;;;;;;0.80;0.80;;;20.50;51.70;;;;;;5042910;28;20479;-67
2020/12/25 01:03:48;;;;;;;1.53;0.60;;;20.50;51.70;;;;;;5010210;28;20493;-66
2020/12/25 01:06:15;;;;;;;0.83;0.77;;;20.50;51.60;;;;;;5045305;28;20500;-68
2020/12/25 01:08:42;;;;;;;1.23;0.80;;;20.50;51.80;;;;;;5042301;28;20500;-67
2020/12/25 01:11:08;;;;;;;1.30;1.20;;;20.50;51.70;;;;;;5036080;28;20587;-68
2020/12/25 01:13:35;;;;;;;0.53;0.53;;;20.50;51.80;;;;;;5031434;28;20827;-67
2020/12/25 01:16:02;;;;;;;0.70;0.70;;;20.60;51.90;;;;;;5038398;28;20521;-67
2020/12/25 01:18:29;;;;;;;0.70;0.70;;;20.50;51.90;;;;;;5056281;28;20481;-66
2020/12/25 01:20:55;;;;;;;0.97;0.97;;;20.50;51.80;;;;;;5041067;28;21009;-68
2020/12/25 01:23:21;;;;;;;0.60;0.60;;;20.50;51.80;;;;;;5052315;28;20845;-67
2020/12/25 01:25:48;;;;;;;0.80;0.80;;;20.50;51.90;;;;;;5038703;28;20538;-67
2020/12/25 01:28:14;;;;;;;0.80;0.80;;;20.50;51.80;;;;;;5052754;28;20487;-67
2020/12/25 01:30:40;;;;;;;1.00;0.73;;;20.50;51.70;;;;;;5048939;28;20481;-67
2020/12/25 01:33:06;;;;;;;0.60;0.60;;;20.50;51.70;;;;;;5048554;28;20488;-67
2020/12/25 01:35:33;;;;;;;0.73;0.73;;;20.50;51.70;;;;;;5055910;28;20481;-67
2020/12/25 01:37:59;;;;;;;0.87;0.87;;;20.50;51.80;;;;;;5036754;28;20547;-67
2020/12/25 01:40:25;;;;;;;1.07;0.67;;;20.50;51.80;;;;;;5039486;28;20486;-67
2020/12/25 01:42:51;;;;;;;0.80;0.77;;;20.50;51.80;;;;;;5049123;28;20536;-66
2020/12/25 01:45:17;;;;;;;0.70;0.70;;;20.50;52.00;;;;;;5036368;28;20521;-67
2020/12/25 01:47:44;;;;;;;0.80;0.80;;;20.50;52.90;;;;;;5037961;28;20485;-67
2020/12/25 01:50:10;;;;;;;0.90;0.73;;;20.50;52.00;;;;;;5035764;28;21138;-67
2020/12/25 01:52:37;;;;;;;4.00;0.60;;;20.50;52.10;;;;;;5045925;28;20841;-67
2020/12/25 01:55:03;;;;;;;0.67;0.67;;;20.50;51.90;;;;;;5028837;28;20566;-66
2020/12/25 01:57:29;;;;;;;0.60;0.60;;;20.50;51.90;;;;;;5042029;28;21108;-67
2020/12/25 01:59:56;;;;;;;0.70;0.70;;;20.50;52.00;;;;;;5052893;28;20505;-67
2020/12/25 02:02:22;;;;;;;1.67;1.27;;;20.40;51.80;;;;;;5042576;28;20487;-67
2020/12/25 02:04:48;;;;;;;0.57;0.57;;;20.40;51.80;;;;;;5036193;28;20483;-67
2020/12/25 02:07:14;;;;;;;0.80;0.80;;;20.50;51.70;;;;;;5044156;28;20543;-68
2020/12/25 02:09:41;;;;;;;0.70;0.70;;;20.40;51.60;;;;;;5023454;28;20572;-67
2020/12/25 02:12:07;;;;;;;0.80;0.80;;;20.40;51.70;;;;;;5016529;28;21100;-66
2020/12/25 02:14:34;;;;;;;0.90;0.60;;;20.40;51.90;;;;;;5051067;28;21029;-66
2020/12/25 02:17:00;;;;;;;0.63;0.63;;;20.40;51.80;;;;;;5048069;28;21009;-67
2020/12/25 02:19:26;;;;;;;0.70;0.70;;;20.40;51.90;;;;;;5027881;28;20487;-67
2020/12/25 02:21:53;;;;;;;0.80;0.80;;;20.40;52.00;;;;;;5028186;28;20494;-66
2020/12/25 02:24:19;;;;;;;1.20;0.83;;;20.40;51.90;;;;;;5026884;28;20496;-67
2020/12/25 02:26:45;;;;;;;1.00;0.70;;;20.40;51.80;;;;;;5031405;28;20497;-67
2020/12/25 02:29:11;;;;;;;0.70;0.70;;;20.40;51.80;;;;;;5034225;28;20490;-67
2020/12/25 02:31:38;;;;;;;0.70;0.70;;;20.40;51.80;;;;;;5034549;28;20507;-67
2020/12/25 02:34:04;;;;;;;0.57;0.57;;;20.40;52.00;;;;;;5050121;28;20474;-67
2020/12/25 02:36:30;;;;;;;0.70;0.70;;;20.40;51.90;;;;;;5033021;28;21216;-66
2020/12/25 02:38:57;;;;;;;0.90;0.90;;;20.40;51.90;;;;;;5052382;28;21033;-67
2020/12/25 02:41:23;;;;;;;2.70;0.80;;;20.40;51.70;;;;;;5051772;28;20489;-67
2020/12/25 02:43:49;;;;;;;0.70;0.70;;;20.40;51.70;;;;;;5048333;28;20489;-67
2020/12/25 02:46:15;;;;;;;0.80;0.80;;;20.40;51.70;;;;;;5050624;28;20486;-67
2020/12/25 02:48:42;;;;;;;0.90;0.90;;;20.40;51.60;;;;;;5048308;28;20561;-67
2020/12/25 02:51:08;;;;;;;0.70;0.70;;;20.40;51.60;;;;;;5027848;28;21010;-67
2020/12/25 02:53:34;;;;;;;1.87;1.10;;;20.40;51.80;;;;;;5049464;28;20848;-67
2020/12/25 02:56:01;;;;;;;0.90;0.80;;;20.40;51.80;;;;;;5059183;28;20481;-68
2020/12/25 02:58:27;;;;;;;2.60;0.90;;;20.40;51.90;;;;;;5069178;28;20481;-68
2020/12/25 03:00:53;;;;;;;1.33;0.93;;;20.40;52.00;;;;;;5057742;28;20478;-66
2020/12/25 03:03:20;;;;;;;1.00;0.90;;;20.40;51.90;;;;;;5070439;28;21108;-67
2020/12/25 03:05:46;;;;;;;2.00;0.87;;;20.40;51.70;;;;;;5069009;28;20975;-67
2020/12/25 03:08:12;;;;;;;0.57;0.57;;;20.40;51.70;;;;;;5056753;28;21062;-66
2020/12/25 03:10:38;;;;;;;0.60;0.60;;;20.40;51.60;;;;;;5067524;28;21158;-67
2020/12/25 03:13:05;;;;;;;1.40;0.90;;;20.40;51.70;;;;;;5058998;28;20473;-68
2020/12/25 03:15:31;;;;;;;0.73;0.73;;;20.40;51.60;;;;;;5059685;28;20480;-67
2020/12/25 03:17:57;;;;;;;1.63;0.60;;;20.30;51.70;;;;;;5070246;28;21016;-68
2020/12/25 03:20:23;;;;;;;0.90;0.90;;;20.30;51.70;;;;;;5056484;28;20891;-68
2020/12/25 03:22:49;;;;;;;0.50;0.50;;;20.30;52.00;;;;;;5057374;28;20814;-68
2020/12/25 03:25:16;;;;;;;1.97;0.63;;;20.30;51.90;;;;;;5068384;28;20477;-68
2020/12/25 03:27:42;;;;;;;0.93;0.93;;;20.30;52.10;;;;;;5070041;28;20477;-68
2020/12/25 03:30:09;;;;;;;1.10;1.00;;;20.30;51.80;;;;;;5055790;28;20524;-68
2020/12/25 03:32:35;;;;;;;0.90;0.90;;;20.30;51.70;;;;;;5049937;28;20489;-67
2020/12/25 03:35:01;;;;;;;1.17;0.83;;;20.30;52.00;;;;;;5043342;28;21035;-67
2020/12/25 03:37:28;;;;;;;1.00;0.60;;;20.30;51.80;;;;;;5066472;28;20949;-67
2020/12/25 03:39:54;;;;;;;2.20;0.60;;;20.30;52.10;;;;;;5057194;28;20513;-67
2020/12/25 03:42:20;;;;;;;0.60;0.50;;;20.30;51.60;;;;;;5047141;28;20489;-68
2020/12/25 03:44:46;;;;;;;3.90;0.87;;;20.30;51.70;;;;;;5067626;28;20465;-68
2020/12/25 03:47:13;;;;;;;0.60;0.60;;;20.30;51.60;;;;;;5067354;28;21152;-67
2020/12/25 03:49:39;;;;;;;1.20;0.90;;;20.30;51.80;;;;;;5061475;28;20484;-69
2020/12/25 03:52:05;;;;;;;1.07;0.97;;;20.30;52.00;;;;;;5045983;28;20485;-69
2020/12/25 03:54:31;;;;;;;0.70;0.70;;;20.30;52.00;;;;;;5058724;28;20478;-68
2020/12/25 03:56:57;;;;;;;0.73;0.73;;;20.30;52.00;;;;;;5068305;28;20555;-68
2020/12/25 03:59:24;;;;;;;0.70;0.70;;;20.40;52.00;;;;;;5030393;28;20494;-68
2020/12/25 04:01:50;;;;;;;1.10;0.70;;;20.40;51.80;;;;;;5010567;28;20481;-68
2020/12/25 04:04:17;;;;;;;1.77;0.90;;;20.30;51.50;;;;;;5064741;28;20506;-69
2020/12/25 04:06:43;;;;;;;0.80;0.80;;;20.30;51.50;;;;;;5067024;28;20905;-68
2020/12/25 04:09:09;;;;;;;0.70;0.70;;;20.30;51.30;;;;;;5054120;28;21864;-68
2020/12/25 04:11:35;;;;;;;1.60;0.60;;;20.30;51.10;;;;;;5062142;28;20469;-68
2020/12/25 04:14:01;;;;;;;0.90;0.90;;;20.40;50.90;;;;;;5037105;28;20482;-69
2020/12/25 04:16:27;;;;;;;0.60;0.60;;;20.40;50.70;;;;;;5029486;28;20482;-68
2020/12/25 04:18:53;;;;;;;1.23;0.70;;;20.50;50.50;;;;;;5069301;28;20519;-68
2020/12/25 04:21:20;;;;;;;0.60;0.60;;;20.50;50.50;;;;;;5073608;28;20489;-68
2020/12/25 04:23:47;;;;;;;0.67;0.67;;;20.50;50.40;;;;;;5059843;28;21690;-68
2020/12/25 04:26:13;;;;;;;0.50;0.50;;;20.60;50.30;;;;;;5061781;28;20481;-69
2020/12/25 04:28:39;;;;;;;0.63;0.63;;;20.60;50.30;;;;;;5072884;28;20491;-68
2020/12/25 04:31:05;;;;;;;0.70;0.70;;;20.60;50.30;;;;;;5046433;28;20550;-68
2020/12/25 04:33:32;;;;;;;1.27;0.90;;;20.70;50.60;;;;;;5040335;28;20474;-68
2020/12/25 04:35:58;;;;;;;0.90;0.70;;;20.70;50.30;;;;;;5072820;28;20980;-67
2020/12/25 04:38:25;;;;;;;1.17;0.73;;;20.70;50.30;;;;;;5059866;28;20483;-68
2020/12/25 04:40:51;;;;;;;0.60;0.60;;;20.80;50.20;;;;;;5062618;28;20508;-68
2020/12/25 04:43:17;;;;;;;1.07;1.00;;;20.80;50.20;;;;;;5050349;28;20485;-67
2020/12/25 04:45:43;;;;;;;1.23;0.90;;;20.80;50.20;;;;;;5060634;28;20468;-67
2020/12/25 04:48:10;;;;;;;0.90;0.90;;;20.80;50.10;;;;;;5072378;28;20468;-67
2020/12/25 04:50:36;;;;;;;2.17;0.97;;;20.80;50.10;;;;;;5049497;28;20476;-67
2020/12/25 04:53:02;;;;;;;0.70;0.70;;;20.80;50.10;;;;;;5050096;28;20486;-67
2020/12/25 04:55:29;;;;;;;0.83;0.73;;;20.70;50.20;;;;;;5050351;28;21218;-68
2020/12/25 04:57:57;;;;;;;0.60;0.60;;;20.70;50.30;;;;;;5059306;28;20531;-68
2020/12/25 05:00:23;;;;;;;1.03;0.60;;;20.70;50.40;;;;;;5043464;28;20549;-68
2020/12/25 05:02:49;;;;;;;0.50;0.50;;;20.60;50.20;;;;;;5055287;28;20499;-68
2020/12/25 05:05:16;;;;;;;1.17;0.97;;;20.60;50.10;;;;;;5022442;28;20464;-68
2020/12/25 05:07:44;;;;;;;1.00;0.90;;;20.60;50.30;;;;;;5040607;28;20547;-67
2020/12/25 05:10:10;;;;;;;1.30;0.80;;;20.60;50.20;;;;;;5041613;28;20489;-68
2020/12/25 05:12:37;;;;;;;1.10;0.80;;;20.60;50.10;;;;;;5027534;28;20481;-68
2020/12/25 05:15:07;;;;;;;1.00;0.93;;;20.60;50.10;;;;;;5063460;28;20477;-69
2020/12/25 05:17:33;;;;;;;0.80;0.73;;;20.60;50.10;;;;;;5050332;28;20484;-67
2020/12/25 05:19:59;;;;;;;0.70;0.70;;;20.60;50.10;;;;;;5036230;28;20479;-68
2020/12/25 05:22:25;;;;;;;0.70;0.70;;;20.60;50.00;;;;;;5021841;28;20480;-68
2020/12/25 05:24:51;;;;;;;2.00;0.60;;;20.60;49.90;;;;;;5056890;28;21007;-67
2020/12/25 05:27:17;;;;;;;1.90;0.93;;;20.70;50.10;;;;;;5071600;28;20853;-68
2020/12/25 05:29:47;;;;;;;0.87;0.87;;;20.70;50.10;;;;;;5051170;28;20481;-69
2020/12/25 05:32:13;;;;;;;0.90;0.70;;;20.70;50.00;;;;;;5060702;28;20488;-68
2020/12/25 05:34:41;;;;;;;0.70;0.70;;;20.70;50.80;;;;;;5071228;28;20476;-67
2020/12/25 05:37:07;;;;;;;0.97;0.90;;;20.70;50.00;;;;;;5064054;28;20527;-67
2020/12/25 05:39:34;;;;;;;0.93;0.70;;;20.80;49.90;;;;;;5059643;28;20545;-66
2020/12/25 05:42:01;;;;;;;0.67;0.67;;;20.80;50.10;;;;;;5073706;28;20518;-67
2020/12/25 05:44:28;;;;;;;0.60;0.60;;;20.80;49.90;;;;;;5050807;28;20470;-67
2020/12/25 05:46:58;;;;;;;0.57;0.57;;;20.80;49.80;;;;;;5030610;28;20475;-67
2020/12/25 05:49:26;;;;;;;1.53;0.50;;;20.80;49.90;;;;;;5051481;28;20519;-67
2020/12/25 05:51:52;;;;;;;0.70;0.70;;;20.70;49.80;;;;;;5028996;28;20479;-67
2020/12/25 05:54:20;;;;;;;0.73;0.73;;;20.70;49.80;;;;;;5037960;28;20497;-67
2020/12/25 05:56:48;;;;;;;1.77;0.80;;;20.70;49.70;;;;;;5040175;28;20557;-67
2020/12/25 05:59:15;;;;;;;1.17;0.73;;;20.70;49.70;;;;;;5053580;28;20504;-69
2020/12/25 06:01:42;;;;;;;0.80;0.70;;;20.70;49.80;;;;;;5050305;28;20535;-68
2020/12/25 06:04:09;;;;;;;1.97;0.90;;;20.70;49.70;;;;;;5037434;28;20486;-68
2020/12/25 06:06:35;;;;;;;1.40;0.77;;;20.70;49.70;;;;;;5060847;28;20484;-68
2020/12/25 06:09:01;;;;;;;0.70;0.70;;;20.70;49.70;;;;;;5048550;28;20485;-68
2020/12/25 06:11:30;;;;;;;1.43;0.80;;;20.70;49.70;;;;;;5071692;28;20476;-67
2020/12/25 06:13:57;;;;;;;1.50;0.60;;;20.70;49.60;;;;;;5066781;28;20472;-67
2020/12/25 06:16:23;;;;;;;0.70;0.70;;;20.70;49.80;;;;;;5070863;28;20485;-67
2020/12/25 06:18:55;;;;;;;0.73;0.60;;;20.80;49.90;;;;;;5051160;28;20895;-68
2020/12/25 06:21:26;;;;;;;0.70;0.70;;;20.80;49.80;;;;;;5068402;28;20486;-68
2020/12/25 06:23:52;;;;;;;0.80;0.80;;;20.80;49.70;;;;;;5069281;28;20482;-69
2020/12/25 06:26:19;;;;;;;0.87;0.57;;;20.80;49.60;;;;;;5062130;28;20937;-67
2020/12/25 06:28:45;;;;;;;0.50;0.50;;;20.80;49.50;;;;;;5013591;28;20562;-67
2020/12/25 06:31:14;;;;;;;1.07;0.97;;;20.80;49.60;;;;;;5047998;28;21579;-68
2020/12/25 06:33:40;;;;;;;1.17;0.80;;;20.80;49.60;;;;;;5039205;28;20500;-67
2020/12/25 06:36:06;;;;;;;1.00;0.80;;;20.80;49.50;;;;;;5036345;28;20495;-67
2020/12/25 06:38:41;;;;;;;0.70;0.70;;;20.80;49.50;;;;;;5063974;28;20486;-67
2020/12/25 06:41:08;;;;;;;0.77;0.77;;;20.80;49.60;;;;;;5047931;28;20888;-67
2020/12/25 06:43:34;;;;;;;0.50;0.50;;;20.80;49.60;;;;;;5059392;28;21037;-67
2020/12/25 06:46:03;;;;;;;0.83;0.70;;;20.80;49.80;;;;;;5057862;28;20471;-67
2020/12/25 06:48:29;;;;;;;0.50;0.50;;;20.80;49.70;;;;;;5071102;28;20858;-67
2020/12/25 06:50:56;;;;;;;0.93;0.70;;;20.80;49.60;;;;;;5067322;28;20529;-67
2020/12/25 06:53:38;;;;;;;0.80;0.80;;;20.80;49.50;;;;;;5069618;28;20854;-67
2020/12/25 06:56:08;;;;;;;0.60;0.60;;;20.80;49.50;;;;;;5038390;28;20860;-67
2020/12/25 06:58:36;;;;;;;1.00;0.70;;;20.80;49.50;;;;;;5029992;28;21153;-67
2020/12/25 07:01:03;;;;;;;1.43;1.33;;;20.80;49.60;;;;;;5027359;28;20545;-68
2020/12/25 07:03:33;;;;;;;1.73;0.80;;;20.80;49.50;;;;;;5039613;28;20528;-68
2020/12/25 07:06:00;;;;;;;1.00;1.00;;;20.80;49.60;;;;;;5049001;28;20501;-68
2020/12/25 07:08:27;;;;;;;0.77;0.77;;;20.80;49.50;;;;;;5040677;28;20497;-66
2020/12/25 07:11:03;;;;;;;1.63;0.77;;;20.80;49.60;;;;;;5030244;28;20504;-68
2020/12/25 07:13:30;;;;;;;0.70;0.70;;;20.80;49.50;;;;;;5031232;28;20568;-67
2020/12/25 07:15:57;;;;;;;0.77;0.77;;;20.80;49.40;;;;;;5048125;28;20481;-68
2020/12/25 07:18:23;;;;;;;0.60;0.60;;;20.80;49.40;;;;;;5050383;28;20489;-67
2020/12/25 07:20:49;;;;;;;0.70;0.70;;;20.80;49.40;;;;;;5050175;28;20467;-67
2020/12/25 07:23:15;;;;;;;1.07;0.70;;;20.80;49.50;;;;;;5045834;28;20491;-67
2020/12/25 07:25:42;;;;;;;0.80;0.73;;;20.80;49.50;;;;;;5043810;28;20476;-66
2020/12/25 07:28:09;;;;;;;0.70;0.70;;;20.70;49.40;;;;;;5049458;28;20491;-68
2020/12/25 07:30:35;;;;;;;0.60;0.60;;;20.70;49.30;;;;;;5048448;28;20478;-67
2020/12/25 07:33:03;;;;;;;1.00;1.00;;;20.70;49.40;;;;;;5015745;28;20471;-67
2020/12/25 07:35:30;;;;;;;0.67;0.67;;;20.70;49.30;;;;;;5019088;28;20500;-67
2020/12/25 07:37:56;;;;;;;0.80;0.70;;;20.70;49.30;;;;;;5031215;28;20486;-67
2020/12/25 07:40:22;;;;;;;0.80;0.70;;;20.70;49.30;;;;;;5049576;28;20477;-67
2020/12/25 07:42:49;;;;;;;2.40;1.20;;;20.70;49.30;;;;;;5050878;28;20482;-67
2020/12/25 07:45:17;;;;;;;1.37;1.37;;;20.70;49.20;;;;;;5048309;28;20899;-67
2020/12/25 07:47:43;;;;;;;1.13;0.70;;;20.70;49.20;;;;;;5049027;28;20512;-67
2020/12/25 07:50:09;;;;;;;0.70;0.70;;;20.70;49.20;;;;;;5038390;28;20545;-67
2020/12/25 07:52:35;;;;;;;0.90;0.70;;;20.70;49.30;;;;;;5046532;28;20479;-67
2020/12/25 07:55:01;;;;;;;1.17;1.00;;;20.70;49.30;;;;;;5027583;28;21018;-67
2020/12/25 07:57:27;;;;;;;0.60;0.60;;;20.70;49.40;;;;;;5016862;28;20928;-68
2020/12/25 07:59:55;;;;;;;1.23;0.80;;;20.70;49.50;;;;;;5017009;28;20491;-66
2020/12/25 08:02:22;;;;;;;1.33;0.80;;;20.70;50.20;;;;;;5047668;28;20851;-66
2020/12/25 08:04:48;;;;;;;0.87;0.87;;;20.70;49.50;;;;;;5042238;28;20569;-67
2020/12/25 08:07:14;;;;;;;2.17;1.63;;;20.70;49.60;;;;;;5025121;28;20494;-68
2020/12/25 08:09:40;;;;;;;1.90;0.80;;;20.70;49.50;;;;;;4999662;28;20474;-67
2020/12/25 08:12:08;;;;;;;1.00;0.70;;;20.70;49.60;;;;;;5018631;28;20899;-67
2020/12/25 08:14:34;;;;;;;2.03;1.10;;;20.70;49.60;;;;;;5033876;28;20859;-67
2020/12/25 08:17:00;;;;;;;0.67;0.67;;;20.60;49.40;;;;;;5038244;28;20514;-68
2020/12/25 08:19:27;;;;;;;1.10;1.00;;;20.60;49.40;;;;;;5047913;28;20483;-67
2020/12/25 08:22:02;;;;;;;0.80;0.80;;;20.60;49.40;;;;;;5047450;28;20528;-67
2020/12/25 08:24:29;;;;;;;0.87;0.77;;;20.60;49.40;;;;;;5037702;28;20958;-67
2020/12/25 08:26:58;;;;;;;0.70;0.60;;;20.60;49.50;;;;;;5047114;28;20517;-68
2020/12/25 08:29:24;;;;;;;0.73;0.70;;;20.50;49.40;;;;;;5033204;28;20482;-67
2020/12/25 08:31:51;;;;;;;0.90;0.70;;;20.50;49.40;;;;;;5047292;28;20934;-67
2020/12/25 08:34:21;;;;;;;1.43;0.70;;;20.50;49.40;;;;;;5050751;28;20479;-67
2020/12/25 08:36:57;;;;;;;0.90;0.90;;;20.50;49.50;;;;;;5029364;28;20465;-67
2020/12/25 08:39:26;;;;;;;0.70;0.70;;;20.50;49.50;;;;;;5048546;28;20939;-67
2020/12/25 08:41:53;;;;;;;0.80;0.80;;;20.50;49.60;;;;;;5027614;28;20520;-67
2020/12/25 08:44:19;;;;;;;1.17;0.70;;;20.50;49.60;;;;;;5050647;28;20570;-67
2020/12/25 08:46:45;;;;;;;2.20;0.80;;;20.50;49.70;;;;;;5047508;28;20481;-67
2020/12/25 08:49:12;;;;;;;1.00;0.80;;;20.50;49.60;;;;;;5020366;28;21507;-67
2020/12/25 08:51:38;;;;;;;0.80;0.80;;;20.50;49.70;;;;;;4998846;28;21042;-68
2020/12/25 08:54:05;;;;;;;0.80;0.80;;;20.50;49.70;;;;;;5029317;28;20486;-67
2020/12/25 08:56:31;;;;;;;0.77;0.77;;;20.50;49.90;;;;;;5055663;28;20470;-68
2020/12/25 08:58:58;;;;;;;0.67;0.67;;;20.50;49.70;;;;;;5047704;28;20498;-67
2020/12/25 09:01:24;;;;;;;0.77;0.77;;;20.50;49.70;;;;;;5028285;28;20524;-67
2020/12/25 09:03:50;;;;;;;2.63;0.70;;;20.50;49.70;;;;;;5010623;28;20494;-67
2020/12/25 09:06:17;;;;;;;0.83;0.83;;;20.60;49.80;;;;;;5036344;28;21208;-67
2020/12/25 09:08:43;;;;;;;1.23;0.80;;;20.60;49.70;;;;;;5032271;28;20489;-67
2020/12/25 09:11:10;;;;;;;1.00;0.90;;;20.60;49.60;;;;;;5051927;28;20488;-67
2020/12/25 09:13:36;;;;;;;0.60;0.57;;;20.60;49.60;;;;;;5027530;28;20484;-67
2020/12/25 09:16:02;;;;;;;1.13;0.80;;;20.50;49.70;;;;;;5048371;28;20481;-67
2020/12/25 09:18:29;;;;;;;1.23;0.63;;;20.60;49.70;;;;;;5048746;28;20498;-67
2020/12/25 09:20:55;;;;;;;0.70;0.70;;;20.50;49.60;;;;;;5042510;28;20477;-68
2020/12/25 09:23:21;;;;;;;1.03;0.90;;;20.50;49.50;;;;;;5050498;28;20486;-66
2020/12/25 09:25:47;;;;;;;1.47;0.80;;;20.50;49.60;;;;;;5051864;28;21219;-67
2020/12/25 09:28:14;;;;;;;0.97;0.87;;;20.50;49.50;;;;;;5053026;28;21343;-68
2020/12/25 09:30:40;;;;;;;1.20;0.70;;;20.50;49.60;;;;;;5052233;28;20478;-67
2020/12/25 09:33:06;;;;;;;0.83;0.70;;;20.50;49.60;;;;;;5041878;28;20477;-67
2020/12/25 09:35:32;;;;;;;0.90;0.83;;;20.50;49.60;;;;;;5050245;28;20485;-67
2020/12/25 09:37:59;;;;;;;0.73;0.73;;;20.40;49.40;;;;;;5036991;28;20489;-67
2020/12/25 09:40:25;;;;;;;0.90;0.90;;;20.40;49.50;;;;;;5051985;28;21071;-68
2020/12/25 09:42:51;;;;;;;0.70;0.70;;;20.40;49.50;;;;;;5060550;28;21040;-67
2020/12/25 09:45:18;;;;;;;0.90;0.90;;;20.40;49.50;;;;;;5070623;28;20480;-68
2020/12/25 09:47:44;;;;;;;0.90;0.90;;;20.40;49.50;;;;;;5048380;28;20477;-67
2020/12/25 09:50:10;;;;;;;1.90;1.07;;;20.40;49.60;;;;;;5068975;28;20499;-67
2020/12/25 09:52:36;;;;;;;0.77;0.77;;;20.50;49.70;;;;;;5067435;28;21046;-67
2020/12/25 09:55:03;;;;;;;1.67;0.77;;;20.50;49.80;;;;;;5049249;28;21030;-67
2020/12/25 09:57:29;;;;;;;0.80;0.80;;;20.50;49.80;;;;;;5047132;28;20497;-68
2020/12/25 09:59:55;;;;;;;0.63;0.63;;;20.50;50.70;;;;;;5038543;28;20965;-68
2020/12/25 10:02:22;;;;;;;0.70;0.70;;;20.50;49.70;;;;;;5059947;28;20482;-68
2020/12/25 10:04:49;;;;;;;0.90;0.90;;;20.50;49.70;;;;;;5072575;28;20485;-68
2020/12/25 10:07:15;;;;;;;1.00;0.90;;;20.50;49.70;;;;;;5060119;28;20481;-67
2020/12/25 10:09:41;;;;;;;0.90;0.90;;;20.50;49.70;;;;;;5051232;28;20515;-67
2020/12/25 10:12:07;;;;;;;0.90;0.90;;;20.40;49.60;;;;;;5027873;28;20607;-67
2020/12/25 10:14:33;;;;;;;0.70;0.70;;;20.40;49.70;;;;;;5051563;28;20498;-68
2020/12/25 10:16:59;;;;;;;1.53;1.07;;;20.40;49.60;;;;;;5050312;28;20486;-68
2020/12/25 10:19:26;;;;;;;1.80;1.37;;;20.40;49.60;;;;;;5072884;28;20487;-67
2020/12/25 10:21:52;;;;;;;1.07;0.90;;;20.40;49.60;;;;;;5071897;28;20914;-67
2020/12/25 10:24:19;;;;;;;1.10;0.80;;;20.40;49.60;;;;;;5061091;28;20475;-67
2020/12/25 10:26:48;;;;;;;0.83;0.83;;;20.40;49.60;;;;;;5053231;28;20487;-67
2020/12/25 10:29:14;;;;;;;0.73;0.60;;;20.40;49.70;;;;;;5061824;28;20481;-67
2020/12/25 10:31:40;;;;;;;1.47;1.20;;;20.40;49.70;;;;;;5071026;28;20492;-68
2020/12/25 10:34:06;;;;;;;0.70;0.70;;;20.40;49.70;;;;;;5065055;28;21601;-67
2020/12/25 10:36:33;;;;;;;2.40;1.00;;;20.40;49.70;;;;;;5084507;28;20963;-67
2020/12/25 10:38:59;;;;;;;0.70;0.70;;;20.40;49.80;;;;;;5060560;28;20541;-67
2020/12/25 10:41:29;;;;;;;1.27;1.17;;;20.50;49.80;;;;;;5075290;28;20494;-66
2020/12/25 10:43:56;;;;;;;1.07;1.07;;;20.50;49.70;;;;;;5069681;28;20906;-67
2020/12/25 10:46:22;;;;;;;0.57;0.57;;;20.50;49.70;;;;;;5070325;28;20491;-67
2020/12/25 10:48:48;;;;;;;0.73;0.50;;;20.50;49.60;;;;;;5070139;28;20473;-67
2020/12/25 10:51:14;;;;;;;5.20;0.80;;;20.60;49.50;;;;;;5071647;28;20489;-68
2020/12/25 10:53:41;;;;;;;1.00;0.60;;;20.60;49.60;;;;;;5070401;28;20477;-66
2020/12/25 10:56:07;;;;;;;0.67;0.67;;;20.50;49.50;;;;;;5052420;28;20489;-67
2020/12/25 10:58:33;;;;;;;0.70;0.70;;;20.50;49.40;;;;;;5065164;28;20515;-68
2020/12/25 11:01:00;;;;;;;1.33;0.90;;;20.50;49.70;;;;;;5050139;28;20542;-67
2020/12/25 11:03:26;;;;;;;0.90;0.90;;;20.50;49.60;;;;;;5073774;28;20484;-67
2020/12/25 11:05:52;;;;;;;0.60;0.60;;;20.50;49.70;;;;;;5066976;28;20490;-67
2020/12/25 11:08:18;;;;;;;0.60;0.60;;;20.40;49.60;;;;;;5066895;28;21035;-67
2020/12/25 11:10:45;;;;;;;0.63;0.63;;;20.50;49.80;;;;;;5064941;28;20859;-68
2020/12/25 11:13:11;;;;;;;0.83;0.83;;;20.50;49.90;;;;;;5057868;28;20952;-66
2020/12/25 11:15:39;;;;;;;1.17;0.80;;;20.50;49.70;;;;;;5086228;28;20585;-68
2020/12/25 11:18:05;;;;;;;0.77;0.77;;;20.50;49.80;;;;;;5057289;28;20573;-67
2020/12/25 11:20:32;;;;;;;0.50;0.50;;;20.50;49.50;;;;;;5070186;28;20534;-67
2020/12/25 11:22:58;;;;;;;0.70;0.70;;;20.50;49.50;;;;;;5070166;28;21082;-67
2020/12/25 11:25:24;;;;;;;1.43;0.63;;;20.50;49.50;;;;;;5071920;28;20859;-67
2020/12/25 11:27:51;;;;;;;0.70;0.70;;;20.50;49.50;;;;;;5075551;28;20945;-67
2020/12/25 11:30:17;;;;;;;0.60;0.60;;;20.60;49.60;;;;;;5068988;28;20485;-67
2020/12/25 11:32:43;;;;;;;1.00;1.00;;;20.50;49.70;;;;;;5069302;28;20476;-68
2020/12/25 11:35:09;;;;;;;1.33;0.60;;;20.50;49.60;;;;;;5071671;28;20506;-66
2020/12/25 11:37:35;;;;;;;1.00;0.80;;;20.40;49.40;;;;;;5065035;28;20491;-68
2020/12/25 11:40:02;;;;;;;0.73;0.73;;;20.40;49.40;;;;;;5068708;28;21020;-67
2020/12/25 11:42:28;;;;;;;0.80;0.70;;;20.40;49.50;;;;;;5068897;28;21055;-68
2020/12/25 11:44:55;;;;;;;0.97;0.97;;;20.40;49.70;;;;;;5068618;28;20887;-67
2020/12/25 11:47:21;;;;;;;0.80;0.80;;;20.40;49.60;;;;;;5062742;28;20484;-67
2020/12/25 11:49:47;;;;;;;1.80;1.00;;;20.40;49.50;;;;;;5069101;28;20481;-67
2020/12/25 11:52:13;;;;;;;0.90;0.63;;;20.40;49.60;;;;;;5067074;28;20491;-67
2020/12/25 11:54:39;;;;;;;1.33;1.03;;;20.30;49.50;;;;;;5065160;28;20498;-67
2020/12/25 11:57:05;;;;;;;1.00;0.80;;;20.40;49.60;;;;;;5077585;28;20490;-67
2020/12/25 11:59:31;;;;;;;0.60;0.60;;;20.40;49.70;;;;;;5072059;28;20487;-67
2020/12/25 12:01:58;;;;;;;1.27;0.70;;;20.40;49.60;;;;;;5067152;28;20547;-67
2020/12/25 12:04:25;;;;;;;0.70;0.70;;;20.40;49.60;;;;;;5069503;28;20844;-67
2020/12/25 12:06:51;;;;;;;1.47;0.80;;;20.40;49.70;;;;;;5072769;28;20476;-67
2020/12/25 12:09:17;;;;;;;0.80;0.80;;;20.40;49.80;;;;;;5069227;28;20472;-67
2020/12/25 12:11:44;;;;;;;0.80;0.80;;;20.40;49.80;;;;;;5066849;28;20478;-67
2020/12/25 12:14:10;;;;;;;0.90;0.90;;;20.40;49.80;;;;;;5058885;28;20512;-68
2020/12/25 12:16:36;;;;;;;0.73;0.73;;;20.40;49.60;;;;;;5069097;28;20541;-66
2020/12/25 12:19:03;;;;;;;0.80;0.80;;;20.40;49.40;;;;;;5071916;28;20501;-67
2020/12/25 12:21:29;;;;;;;0.60;0.60;;;20.40;49.50;;;;;;5070927;28;20506;-67
2020/12/25 12:23:55;;;;;;;0.73;0.60;;;20.40;49.50;;;;;;5055987;28;20496;-66
2020/12/25 12:26:21;;;;;;;0.77;0.67;;;20.30;49.60;;;;;;5068558;28;20967;-67
2020/12/25 12:28:47;;;;;;;0.60;0.60;;;20.30;49.60;;;;;;5048777;28;20473;-67
2020/12/25 12:31:14;;;;;;;0.70;0.70;;;20.30;49.80;;;;;;5058233;28;20488;-67
2020/12/25 12:33:40;;;;;;;0.60;0.60;;;20.30;49.80;;;;;;5069468;28;20832;-67
2020/12/25 12:36:08;;;;;;;0.60;0.60;;;20.40;49.90;;;;;;5063705;28;20485;-66
2020/12/25 12:38:34;;;;;;;4.10;0.83;;;20.40;49.70;;;;;;5076564;28;20479;-67
2020/12/25 12:41:00;;;;;;;0.57;0.57;;;20.40;49.70;;;;;;5076425;28;20485;-67
2020/12/25 12:43:26;;;;;;;0.97;0.97;;;20.40;49.60;;;;;;5073836;28;20535;-66